Time;durP1;ratioP1;P1;durP2;ratioP2;P2;SDS_P1;SDS_P2;PMS_P1;PMS_P2;Temp;Humidity;BMP_temperature;BMP_pressure;BME280_temperature;BME280_humidity;BME280_pressure;Samples;Min_cycle;Max_cycle;Signal;HPM_P1;HPM_P2
2022/10/25 00:00:27;;;;;;;17.90;10.52;;;12.90;99.90;;;;;;5113309;28;20044;-83
2022/10/25 00:02:52;;;;;;;23.88;10.88;;;12.80;99.90;;;;;;5113405;28;20082;-83
2022/10/25 00:05:18;;;;;;;16.48;10.02;;;12.80;99.90;;;;;;5114194;28;20044;-83
2022/10/25 00:07:43;;;;;;;17.58;10.85;;;12.90;99.90;;;;;;5114245;28;20416;-83
2022/10/25 00:10:09;;;;;;;14.32;10.02;;;12.80;99.90;;;;;;5113310;28;20043;-83
2022/10/25 00:12:43;;;;;;;16.15;10.30;;;12.80;99.90;;;;;;5114209;28;20036;-83
2022/10/25 00:15:11;;;;;;;15.35;10.15;;;12.80;99.90;;;;;;5114702;28;20040;-83
2022/10/25 00:17:37;;;;;;;15.55;10.02;;;12.80;99.90;;;;;;5113781;28;20376;-83
2022/10/25 00:20:03;;;;;;;19.10;9.77;;;12.80;99.90;;;;;;5113091;28;20089;-83
2022/10/25 00:22:29;;;;;;;21.10;12.07;;;12.80;99.90;;;;;;5114238;28;20035;-83
2022/10/25 00:24:54;;;;;;;16.80;9.55;;;12.80;99.90;;;;;;5114437;28;20338;-83
2022/10/25 00:27:20;;;;;;;18.17;11.10;;;12.90;99.90;;;;;;5112648;28;20051;-83
2022/10/25 00:29:45;;;;;;;16.52;9.88;;;12.80;99.90;;;;;;5114020;28;20052;-82
2022/10/25 00:32:11;;;;;;;17.02;9.70;;;12.70;99.90;;;;;;5112676;28;20042;-83
2022/10/25 00:34:40;;;;;;;17.73;9.95;;;12.80;99.90;;;;;;5114234;28;20092;-83
2022/10/25 00:37:05;;;;;;;18.42;10.95;;;12.70;99.90;;;;;;5113925;28;20036;-82
2022/10/25 00:39:31;;;;;;;17.67;10.37;;;12.80;99.90;;;;;;5114046;28;20055;-83
2022/10/25 00:41:56;;;;;;;25.05;10.43;;;12.60;99.90;;;;;;5113894;28;20502;-83
2022/10/25 00:44:49;;;;;;;18.13;11.13;;;12.50;99.90;;;;;;5115635;28;20039;-83
2022/10/25 00:47:26;;;;;;;20.52;10.52;;;12.50;99.90;;;;;;5117793;28;20044;-83
2022/10/25 00:50:15;;;;;;;19.75;9.95;;;12.30;99.90;;;;;;5118307;28;20428;-83
2022/10/25 00:52:44;;;;;;;15.75;9.95;;;12.30;99.90;;;;;;5117292;28;20048;-83
2022/10/25 00:55:13;;;;;;;19.30;10.63;;;12.30;99.90;;;;;;5117724;28;20069;-82
2022/10/25 00:57:47;;;;;;;25.20;10.05;;;12.20;99.90;;;;;;5118106;28;20066;-83
2022/10/25 01:00:13;;;;;;;20.67;11.60;;;12.30;99.90;;;;;;5118058;28;20040;-83
2022/10/25 01:02:38;;;;;;;21.67;10.83;;;12.30;99.90;;;;;;5116514;28;20467;-83
2022/10/25 01:05:04;;;;;;;22.85;10.88;;;12.30;99.90;;;;;;5116663;28;20049;-83
2022/10/25 01:07:30;;;;;;;18.33;10.93;;;12.30;99.90;;;;;;5117469;28;20051;-83
2022/10/25 01:09:56;;;;;;;20.05;10.48;;;12.30;99.90;;;;;;5116386;28;20044;-83
2022/10/25 01:12:22;;;;;;;19.02;11.48;;;12.60;99.90;;;;;;5117100;28;20040;-83
2022/10/25 01:14:49;;;;;;;20.50;10.57;;;12.30;99.90;;;;;;5117343;28;20070;-81
2022/10/25 01:17:32;;;;;;;19.58;10.48;;;12.40;99.90;;;;;;5116893;28;20043;-80
2022/10/25 01:20:23;;;;;;;18.70;9.57;;;12.30;99.90;;;;;;5118729;27;20048;-84
2022/10/25 01:22:57;;;;;;;18.98;10.55;;;12.40;99.90;;;;;;5117704;28;20050;-83
2022/10/25 01:25:37;;;;;;;22.50;9.65;;;12.40;99.90;;;;;;5116309;28;20036;-81
2022/10/25 01:28:12;;;;;;;18.98;9.27;;;12.40;99.90;;;;;;5117494;28;20063;-80
2022/10/25 01:31:07;;;;;;;18.77;9.30;;;12.40;99.90;;;;;;5117321;28;20055;-80
2022/10/25 01:33:45;;;;;;;13.45;8.43;;;12.50;99.90;;;;;;5117353;28;20497;-83
2022/10/25 01:36:17;;;;;;;18.00;9.25;;;12.50;99.90;;;;;;5116951;28;20085;-80
2022/10/25 01:39:13;;;;;;;14.85;8.45;;;12.40;99.90;;;;;;5116153;28;20399;-81
2022/10/25 01:42:05;;;;;;;16.55;8.27;;;12.40;99.90;;;;;;5115712;28;20548;-81
2022/10/25 01:44:42;;;;;;;13.20;8.23;;;12.30;99.90;;;;;;5116258;28;20051;-81
2022/10/25 01:47:14;;;;;;;16.40;8.57;;;12.30;99.90;;;;;;5116605;28;20595;-81
2022/10/25 01:49:48;;;;;;;16.98;7.80;;;12.20;99.90;;;;;;5116743;28;20414;-80
2022/10/25 01:52:18;;;;;;;15.07;7.93;;;12.20;99.90;;;;;;5115583;28;20042;-82
2022/10/25 01:54:44;;;;;;;17.83;8.15;;;12.20;99.90;;;;;;5116661;28;20097;-83
2022/10/25 01:57:52;;;;;;;14.48;7.93;;;12.10;99.90;;;;;;5116635;27;20036;-83
2022/10/25 02:00:20;;;;;;;15.88;8.02;;;12.00;99.90;;;;;;5116322;28;20471;-83
2022/10/25 02:03:10;;;;;;;18.35;8.10;;;12.00;99.90;;;;;;5116395;28;20043;-83
2022/10/25 02:05:45;;;;;;;14.65;7.85;;;12.00;99.90;;;;;;5116633;28;20051;-80
2022/10/25 02:08:19;;;;;;;13.68;7.88;;;12.00;99.90;;;;;;5116388;28;20043;-80
2022/10/25 02:11:24;;;;;;;14.85;7.97;;;11.90;99.90;;;;;;5116107;28;20044;-81
2022/10/25 02:14:06;;;;;;;14.40;8.60;;;11.90;99.90;;;;;;5116355;28;20054;-80
2022/10/25 02:16:55;;;;;;;14.95;7.90;;;12.10;99.90;;;;;;5116302;28;20051;-83
2022/10/25 02:19:32;;;;;;;14.82;7.95;;;11.90;99.90;;;;;;5116211;28;20082;-80
2022/10/25 02:22:00;;;;;;;15.48;8.23;;;11.80;99.90;;;;;;5115027;28;20130;-81
2022/10/25 02:24:27;;;;;;;18.23;8.82;;;11.80;99.90;;;;;;5114777;28;20047;-83
2022/10/25 02:26:55;;;;;;;21.20;9.75;;;11.90;99.90;;;;;;5116028;28;20071;-81
2022/10/25 02:29:22;;;;;;;24.40;9.68;;;11.90;99.90;;;;;;5114721;28;20040;-81
2022/10/25 02:31:48;;;;;;;16.63;9.68;;;12.00;99.90;;;;;;5115872;28;20073;-83
2022/10/25 02:34:14;;;;;;;22.38;9.27;;;12.00;99.90;;;;;;5115968;28;20491;-84
2022/10/25 02:36:40;;;;;;;17.73;9.57;;;12.00;99.90;;;;;;5115775;28;20134;-83
2022/10/25 02:39:06;;;;;;;17.58;9.82;;;12.40;99.90;;;;;;5115782;28;20479;-83
2022/10/25 02:41:32;;;;;;;21.47;10.80;;;12.10;99.90;;;;;;5115819;28;20039;-83
2022/10/25 02:43:58;;;;;;;19.92;11.27;;;12.30;99.90;;;;;;5115614;28;20135;-83
2022/10/25 02:46:24;;;;;;;18.10;10.70;;;12.20;99.90;;;;;;5114887;28;20075;-82
2022/10/25 02:48:50;;;;;;;23.75;11.90;;;12.30;99.90;;;;;;5115336;28;20047;-81
2022/10/25 02:51:17;;;;;;;17.00;10.50;;;12.30;99.90;;;;;;5115570;28;20357;-81
2022/10/25 02:53:43;;;;;;;17.83;11.35;;;12.30;99.90;;;;;;5097729;28;20447;-80
2022/10/25 02:56:13;;;;;;;17.60;10.52;;;12.50;99.90;;;;;;5115445;28;20078;-83
2022/10/25 02:58:40;;;;;;;25.77;11.73;;;12.40;99.90;;;;;;5115413;28;20452;-81
2022/10/25 03:01:06;;;;;;;21.80;11.02;;;12.40;99.90;;;;;;5115695;28;20050;-83
2022/10/25 03:03:33;;;;;;;17.27;10.40;;;12.60;99.90;;;;;;5115248;28;20135;-80
2022/10/25 03:05:58;;;;;;;16.40;9.53;;;12.60;99.90;;;;;;5115142;28;20043;-83
2022/10/25 03:08:25;;;;;;;16.67;9.85;;;12.60;99.90;;;;;;5114972;28;20490;-81
2022/10/25 03:10:52;;;;;;;24.67;10.98;;;12.60;99.90;;;;;;5114334;28;20044;-83
2022/10/25 03:13:17;;;;;;;16.95;9.70;;;12.70;99.90;;;;;;5115056;28;20052;-83
2022/10/25 03:15:44;;;;;;;20.90;10.20;;;12.70;99.90;;;;;;5115028;28;20051;-81
2022/10/25 03:18:10;;;;;;;20.58;10.35;;;12.70;99.90;;;;;;5115408;28;20075;-83
2022/10/25 03:20:36;;;;;;;15.90;9.40;;;12.70;99.90;;;;;;5114894;28;20044;-83
2022/10/25 03:23:01;;;;;;;15.02;9.45;;;12.70;99.90;;;;;;5114257;28;20046;-83
2022/10/25 03:25:27;;;;;;;18.23;9.40;;;12.70;99.90;;;;;;5113997;28;20088;-83
2022/10/25 03:27:53;;;;;;;13.80;9.70;;;12.70;99.90;;;;;;5115287;28;20062;-80
2022/10/25 03:30:18;;;;;;;15.43;9.30;;;12.70;99.90;;;;;;5113660;28;20047;-81
2022/10/25 03:32:44;;;;;;;15.40;9.43;;;12.70;99.90;;;;;;5114546;27;20040;-80
2022/10/25 03:35:09;;;;;;;17.75;10.32;;;12.70;99.90;;;;;;5114794;28;20082;-80
2022/10/25 03:37:35;;;;;;;18.85;10.63;;;13.10;99.90;;;;;;5113599;28;20039;-83
2022/10/25 03:40:01;;;;;;;23.10;10.32;;;12.80;99.90;;;;;;5114756;28;20044;-81
2022/10/25 03:42:26;;;;;;;20.98;10.75;;;12.80;99.90;;;;;;5114654;28;20044;-83
2022/10/25 03:44:52;;;;;;;18.30;10.88;;;12.80;99.90;;;;;;5114511;28;20510;-83
2022/10/25 03:47:18;;;;;;;20.02;11.38;;;12.80;99.90;;;;;;5113263;28;20044;-81
2022/10/25 03:49:44;;;;;;;16.83;10.57;;;12.80;99.90;;;;;;5114543;28;20047;-80
2022/10/25 03:52:10;;;;;;;15.93;10.50;;;13.00;99.90;;;;;;5114196;28;20455;-80
2022/10/25 03:54:35;;;;;;;19.10;10.93;;;12.90;99.90;;;;;;5114270;28;20068;-81
2022/10/25 03:57:01;;;;;;;19.38;10.70;;;12.80;99.90;;;;;;5114466;28;20071;-83
2022/10/25 03:59:27;;;;;;;22.13;11.07;;;12.80;99.90;;;;;;5114852;28;20059;-83
2022/10/25 04:01:53;;;;;;;24.02;10.88;;;13.00;99.90;;;;;;5113367;28;20035;-83
2022/10/25 04:04:19;;;;;;;19.33;10.68;;;12.80;99.90;;;;;;5114303;28;20043;-81
2022/10/25 04:06:44;;;;;;;19.00;11.27;;;12.80;99.90;;;;;;5114525;28;20127;-83
2022/10/25 04:09:10;;;;;;;18.67;11.10;;;12.80;99.90;;;;;;5114138;28;20047;-82
2022/10/25 04:11:36;;;;;;;21.45;10.63;;;12.80;99.90;;;;;;5114057;28;20035;-82
2022/10/25 04:14:01;;;;;;;22.15;10.98;;;12.70;99.90;;;;;;5114123;28;20054;-82
2022/10/25 04:16:27;;;;;;;26.35;10.75;;;12.80;99.90;;;;;;5113961;28;20127;-82
2022/10/25 04:18:53;;;;;;;22.48;11.50;;;12.80;99.90;;;;;;5115112;28;20046;-83
2022/10/25 04:21:19;;;;;;;19.25;11.10;;;12.70;99.90;;;;;;5117232;28;20559;-82
2022/10/25 04:23:45;;;;;;;21.50;11.40;;;12.70;99.90;;;;;;5117147;28;20126;-81
2022/10/25 04:26:13;;;;;;;23.35;11.05;;;12.70;99.90;;;;;;5116907;28;20313;-83
2022/10/25 04:28:38;;;;;;;22.88;10.88;;;12.70;99.90;;;;;;5118116;28;20048;-82
2022/10/25 04:31:04;;;;;;;22.87;11.80;;;12.70;99.90;;;;;;5117594;28;20089;-82
2022/10/25 04:33:30;;;;;;;20.00;11.38;;;12.70;99.90;;;;;;5118117;28;20067;-82
2022/10/25 04:35:56;;;;;;;22.88;12.00;;;12.70;99.90;;;;;;5118030;28;20040;-83
2022/10/25 04:38:22;;;;;;;26.90;11.48;;;12.70;99.90;;;;;;5118156;28;20123;-83
2022/10/25 04:40:56;;;;;;;17.70;11.38;;;12.80;99.90;;;;;;5118055;28;20051;-82
2022/10/25 04:43:23;;;;;;;19.30;10.98;;;12.80;99.90;;;;;;5118000;28;20051;-83
2022/10/25 04:45:49;;;;;;;24.27;10.68;;;12.80;99.90;;;;;;5118019;28;20044;-83
2022/10/25 04:48:14;;;;;;;25.02;11.15;;;13.10;99.90;;;;;;5117812;28;20463;-82
2022/10/25 04:50:40;;;;;;;24.27;11.43;;;12.80;99.90;;;;;;5117858;28;20049;-83
2022/10/25 04:53:06;;;;;;;21.40;11.35;;;12.80;99.90;;;;;;5116889;28;20079;-83
2022/10/25 04:55:32;;;;;;;24.70;10.98;;;12.80;99.90;;;;;;5117253;28;20040;-83
2022/10/25 04:57:57;;;;;;;17.23;10.40;;;12.80;99.90;;;;;;5117671;28;20059;-83
2022/10/25 05:00:23;;;;;;;18.87;9.77;;;12.80;99.90;;;;;;5117672;28;20047;-82
2022/10/25 05:02:58;;;;;;;21.23;10.83;;;12.80;99.90;;;;;;5117997;28;20484;-83
2022/10/25 05:05:24;;;;;;;24.40;10.57;;;12.70;99.90;;;;;;5117725;28;20068;-82
2022/10/25 05:07:50;;;;;;;23.60;11.35;;;12.70;99.90;;;;;;5116339;28;20118;-83
2022/10/25 05:10:16;;;;;;;26.37;11.03;;;12.70;99.90;;;;;;5117508;28;20035;-82
2022/10/25 05:12:43;;;;;;;23.20;9.68;;;12.60;99.90;;;;;;5118033;28;20126;-82
2022/10/25 05:15:09;;;;;;;17.58;9.00;;;12.60;99.90;;;;;;5117430;28;20050;-83
2022/10/25 05:17:35;;;;;;;13.82;8.77;;;12.60;99.90;;;;;;5117425;28;20051;-83
2022/10/25 05:20:01;;;;;;;17.52;9.07;;;12.70;99.90;;;;;;5117393;28;20039;-83
2022/10/25 05:22:28;;;;;;;16.65;9.05;;;12.50;99.90;;;;;;5117344;28;20047;-83
2022/10/25 05:24:53;;;;;;;21.20;10.23;;;12.40;99.90;;;;;;5117205;28;20051;-83
2022/10/25 05:27:19;;;;;;;20.38;9.27;;;12.40;99.90;;;;;;5117132;28;20047;-82
2022/10/25 05:29:45;;;;;;;18.90;9.52;;;12.30;99.90;;;;;;5116856;28;20105;-83
2022/10/25 05:32:10;;;;;;;29.38;11.38;;;12.30;99.90;;;;;;5117050;28;20051;-83
2022/10/25 05:34:36;;;;;;;27.98;9.50;;;12.30;99.90;;;;;;5117026;28;20047;-83
2022/10/25 05:37:02;;;;;;;19.25;9.88;;;12.20;99.90;;;;;;5117104;27;20048;-82
2022/10/25 05:39:27;;;;;;;19.88;9.68;;;12.30;99.90;;;;;;5116911;28;20055;-81
2022/10/25 05:41:53;;;;;;;20.42;9.50;;;12.30;99.90;;;;;;5116979;28;20051;-81
2022/10/25 05:44:18;;;;;;;17.45;9.23;;;12.30;99.90;;;;;;5117271;27;20047;-82
2022/10/25 05:46:44;;;;;;;16.48;8.85;;;12.20;99.90;;;;;;5116796;28;20048;-83
2022/10/25 05:49:11;;;;;;;18.35;8.60;;;12.30;99.90;;;;;;5116869;28;20131;-81
2022/10/25 05:51:37;;;;;;;19.60;8.73;;;12.60;99.90;;;;;;5098879;28;20051;-78
2022/10/25 05:54:11;;;;;;;18.77;8.35;;;12.20;99.90;;;;;;5116611;28;20125;-83
2022/10/25 05:56:37;;;;;;;16.65;8.18;;;12.20;99.90;;;;;;5116673;28;20052;-82
2022/10/25 05:59:08;;;;;;;12.52;7.57;;;12.30;99.90;;;;;;5116627;28;20079;-82
2022/10/25 06:01:35;;;;;;;14.25;7.32;;;12.30;99.90;;;;;;5115579;28;20101;-81
2022/10/25 06:04:00;;;;;;;;;;;12.30;99.90;;;;;;5115797;28;20043;-79
2022/10/25 06:06:26;;;;;;;15.82;7.10;;;12.30;99.90;;;;;;5114635;27;20393;-81
2022/10/25 06:08:56;;;;;;;16.75;7.57;;;12.30;99.90;;;;;;5115529;28;20046;-80
2022/10/25 06:11:23;;;;;;;18.38;8.18;;;12.30;99.90;;;;;;5115711;28;20083;-72
2022/10/25 06:13:48;;;;;;;12.63;7.18;;;12.20;99.90;;;;;;5116381;28;20403;-79
2022/10/25 06:16:16;;;;;;;17.90;7.65;;;12.30;99.90;;;;;;5115042;28;20050;-79
2022/10/25 06:18:43;;;;;;;17.05;7.53;;;12.20;99.90;;;;;;5115192;28;20121;-79
2022/10/25 06:21:11;;;;;;;16.48;7.80;;;12.30;99.90;;;;;;5115851;28;20047;-79
2022/10/25 06:23:38;;;;;;;18.83;7.35;;;12.30;99.90;;;;;;5116037;28;20055;-79
2022/10/25 06:26:13;;;;;;;16.30;7.70;;;12.30;99.90;;;;;;5115864;27;20150;-83
2022/10/25 06:28:39;;;;;;;23.42;8.15;;;12.30;99.90;;;;;;5116058;28;20035;-78
2022/10/25 06:31:11;;;;;;;17.73;7.60;;;12.30;99.90;;;;;;5115811;28;20092;-77
2022/10/25 06:33:37;;;;;;;25.73;7.78;;;12.30;99.90;;;;;;5116027;28;20035;-76
2022/10/25 06:36:06;;;;;;;14.82;7.30;;;12.40;99.90;;;;;;5115781;28;20040;-76
2022/10/25 06:38:32;;;;;;;18.02;7.60;;;12.30;99.90;;;;;;5115759;28;20043;-76
2022/10/25 06:41:04;;;;;;;29.43;9.17;;;12.20;99.90;;;;;;5115331;28;20094;-74
2022/10/25 06:43:31;;;;;;;20.20;8.98;;;12.20;99.90;;;;;;5115809;28;20043;-82
2022/10/25 06:45:57;;;;;;;21.30;9.95;;;12.20;99.90;;;;;;5115673;28;20078;-80
2022/10/25 06:48:23;;;;;;;16.87;9.37;;;12.20;99.90;;;;;;5115541;28;20101;-80
2022/10/25 06:51:01;;;;;;;24.08;10.40;;;12.20;99.90;;;;;;5115529;28;20048;-79
2022/10/25 06:53:26;;;;;;;;;;;12.20;99.90;;;;;;5116379;28;20130;-79
2022/10/25 06:55:52;;;;;;;24.25;9.73;;;12.60;99.90;;;;;;5115403;28;19972;-79
2022/10/25 06:58:17;;;;;;;27.33;10.37;;;12.40;99.90;;;;;;5115384;28;20054;-80
2022/10/25 07:00:43;;;;;;;24.65;9.68;;;12.40;99.90;;;;;;5115323;28;20040;-74
2022/10/25 07:03:08;;;;;;;26.88;9.57;;;12.40;99.90;;;;;;5115426;28;20046;-81
2022/10/25 07:05:34;;;;;;;26.17;10.52;;;12.50;99.90;;;;;;5115800;28;20044;-81
2022/10/25 07:07:59;;;;;;;22.00;10.05;;;12.50;99.90;;;;;;5114210;28;20065;-81
2022/10/25 07:10:25;;;;;;;24.55;9.52;;;12.50;99.90;;;;;;5115187;28;20043;-81
2022/10/25 07:12:50;;;;;;;28.42;9.65;;;12.50;99.90;;;;;;5115242;28;20039;-79
2022/10/25 07:15:16;;;;;;;23.53;9.53;;;12.60;99.90;;;;;;5115112;28;20039;-79
2022/10/25 07:17:42;;;;;;;26.25;9.30;;;12.70;99.90;;;;;;5114105;28;20055;-78
2022/10/25 07:20:07;;;;;;;15.93;9.13;;;12.70;99.90;;;;;;5114956;28;20078;-79
2022/10/25 07:22:33;;;;;;;18.70;8.43;;;12.80;99.90;;;;;;5115323;28;20043;-79
2022/10/25 07:24:59;;;;;;;16.48;8.43;;;12.80;99.90;;;;;;5113748;28;20067;-79
2022/10/25 07:27:24;;;;;;;16.60;7.55;;;12.90;99.90;;;;;;5114961;27;20083;-79
2022/10/25 07:29:50;;;;;;;17.70;7.93;;;12.90;99.90;;;;;;5115136;28;20066;-78
2022/10/25 07:32:16;;;;;;;17.67;7.22;;;13.00;99.90;;;;;;5114990;28;20126;-82
2022/10/25 07:34:42;;;;;;;17.50;7.60;;;13.00;99.90;;;;;;5114336;28;20074;-81
2022/10/25 07:37:07;;;;;;;20.48;7.65;;;13.10;99.90;;;;;;5114734;28;20437;-75
2022/10/25 07:39:33;;;;;;;17.55;7.40;;;13.10;99.90;;;;;;5115040;28;20048;-83
2022/10/25 07:41:59;;;;;;;17.73;7.85;;;13.30;99.90;;;;;;5114925;28;20394;-81
2022/10/25 07:44:24;;;;;;;16.45;8.20;;;13.40;99.90;;;;;;5115311;28;20044;-83
2022/10/25 07:46:51;;;;;;;20.75;8.07;;;13.30;99.90;;;;;;5113536;28;20101;-83
2022/10/25 07:49:16;;;;;;;16.77;8.45;;;13.50;99.90;;;;;;5115027;28;20126;-79
2022/10/25 07:51:42;;;;;;;18.15;9.02;;;13.40;99.90;;;;;;5114528;28;20090;-82
2022/10/25 07:54:08;;;;;;;16.73;8.57;;;13.40;99.90;;;;;;5114311;28;20043;-81
2022/10/25 07:56:33;;;;;;;27.20;8.70;;;13.50;99.90;;;;;;5112896;28;20141;-81
2022/10/25 07:58:59;;;;;;;19.83;9.48;;;13.60;99.90;;;;;;5114419;28;20050;-81
2022/10/25 08:01:26;;;;;;;19.07;8.83;;;13.60;99.90;;;;;;5114509;28;20054;-81
2022/10/25 08:03:53;;;;;;;22.02;8.48;;;13.70;99.90;;;;;;5114212;28;20483;-81
2022/10/25 08:06:20;;;;;;;21.55;9.35;;;13.70;99.90;;;;;;5113022;28;20055;-81
2022/10/25 08:08:46;;;;;;;19.73;9.40;;;13.80;99.90;;;;;;5114401;28;20484;-81
2022/10/25 08:11:12;;;;;;;17.17;9.27;;;13.80;99.90;;;;;;5114321;28;20044;-81
2022/10/25 08:13:38;;;;;;;18.05;9.13;;;13.80;99.90;;;;;;5114478;28;20047;-81
2022/10/25 08:16:05;;;;;;;19.73;9.82;;;13.90;99.90;;;;;;5114284;27;20074;-81
2022/10/25 08:18:31;;;;;;;17.73;8.88;;;13.90;99.90;;;;;;5114401;28;20467;-82
2022/10/25 08:20:57;;;;;;;15.15;7.88;;;13.90;99.90;;;;;;5114535;28;20048;-81
2022/10/25 08:23:24;;;;;;;14.13;7.67;;;14.00;99.90;;;;;;5114388;28;20042;-81
2022/10/25 08:25:50;;;;;;;17.10;8.13;;;14.10;99.90;;;;;;5114181;28;20043;-81
2022/10/25 08:28:15;;;;;;;14.30;8.60;;;14.20;99.90;;;;;;5114043;28;20089;-81
2022/10/25 08:30:41;;;;;;;15.88;8.73;;;14.30;99.90;;;;;;5114165;28;20421;-80
2022/10/25 08:33:07;;;;;;;16.63;7.67;;;14.30;99.90;;;;;;5114047;28;20082;-80
2022/10/25 08:35:33;;;;;;;16.27;8.00;;;14.30;99.90;;;;;;5113944;28;20499;-80
2022/10/25 08:38:03;;;;;;;15.68;7.97;;;14.30;99.90;;;;;;5113738;28;20044;-80
2022/10/25 08:40:45;;;;;;;17.08;9.10;;;14.30;99.90;;;;;;5114058;28;20134;-81
2022/10/25 08:43:27;;;;;;;12.20;7.95;;;14.30;99.90;;;;;;5114035;28;20127;-81
2022/10/25 08:46:03;;;;;;;18.63;9.00;;;14.30;99.90;;;;;;5114469;28;20083;-81
2022/10/25 08:48:37;;;;;;;18.50;8.60;;;14.40;99.90;;;;;;5113755;28;20043;-81
2022/10/25 08:51:30;;;;;;;22.55;9.10;;;14.60;99.90;;;;;;5113976;28;20411;-81
2022/10/25 08:54:00;;;;;;;20.23;8.20;;;14.50;99.90;;;;;;5113870;28;20140;-81
2022/10/25 08:56:27;;;;;;;16.23;8.25;;;14.50;99.90;;;;;;5114139;28;20040;-81
2022/10/25 08:58:59;;;;;;;14.68;8.40;;;14.60;99.90;;;;;;5113784;28;20126;-81
2022/10/25 09:01:42;;;;;;;16.10;8.77;;;14.70;99.90;;;;;;5113956;28;20383;-81
2022/10/25 09:04:08;;;;;;;21.42;8.13;;;14.60;99.90;;;;;;5113844;28;20052;-81
2022/10/25 09:07:11;;;;;;;15.07;8.50;;;14.60;99.90;;;;;;5117337;28;20048;-81
2022/10/25 09:10:02;;;;;;;16.10;7.88;;;14.60;99.90;;;;;;5117394;28;20752;-81
2022/10/25 09:12:34;;;;;;;14.68;7.18;;;14.60;99.90;;;;;;5117218;28;20040;-81
2022/10/25 09:15:38;;;;;;;15.57;7.28;;;14.80;99.90;;;;;;5117254;28;20043;-80
2022/10/25 09:18:16;;;;;;;14.57;7.45;;;14.90;99.90;;;;;;5128099;27;20079;-84
2022/10/25 09:20:48;;;;;;;15.00;7.22;;;14.90;99.90;;;;;;5117523;28;20376;-81
2022/10/25 09:23:30;;;;;;;16.15;7.55;;;15.00;99.90;;;;;;5136005;27;20047;-81
2022/10/25 09:26:02;;;;;;;13.05;7.63;;;15.10;99.90;;;;;;5134623;27;20077;-81
2022/10/25 09:28:43;;;;;;;12.30;6.55;;;15.40;99.90;;;;;;5117372;28;20048;-80
2022/10/25 09:31:14;;;;;;;19.58;7.10;;;15.50;99.90;;;;;;5117027;28;20453;-79
2022/10/25 09:33:44;;;;;;;15.63;6.53;;;15.50;99.90;;;;;;5116817;28;20055;-79
2022/10/25 09:36:11;;;;;;;17.38;6.63;;;15.60;99.90;;;;;;5117671;28;20043;-80
2022/10/25 09:38:46;;;;;;;13.15;6.63;;;15.60;99.90;;;;;;5115280;28;20039;-80
2022/10/25 09:41:17;;;;;;;13.85;6.57;;;15.60;99.90;;;;;;5115769;28;20092;-80
2022/10/25 09:43:52;;;;;;;14.38;5.93;;;15.70;99.90;;;;;;5117040;28;20044;-80
2022/10/25 09:46:38;;;;;;;11.15;6.35;;;15.80;99.90;;;;;;5116840;28;20058;-80
2022/10/25 09:49:12;;;;;;;12.73;5.55;;;15.80;99.90;;;;;;5116770;28;20047;-80
2022/10/25 09:52:05;;;;;;;13.68;5.25;;;15.70;99.90;;;;;;5116945;28;20379;-81
2022/10/25 09:55:10;;;;;;;12.40;5.60;;;15.60;99.90;;;;;;5116726;28;20043;-86
2022/10/25 09:57:36;;;;;;;10.88;5.20;;;15.50;99.90;;;;;;5098382;28;20092;-80
2022/10/25 10:00:03;;;;;;;8.97;4.87;;;15.50;99.90;;;;;;5115942;28;20056;-78
2022/10/25 10:02:28;;;;;;;13.15;5.05;;;15.40;99.90;;;;;;5116564;28;20047;-79
2022/10/25 10:04:54;;;;;;;12.45;4.80;;;15.40;99.90;;;;;;5116513;28;20493;-81
2022/10/25 10:07:32;;;;;;;11.13;4.97;;;15.40;99.90;;;;;;5116854;28;20518;-76
2022/10/25 10:10:05;;;;;;;10.32;4.40;;;15.40;99.90;;;;;;5116480;28;20048;-78
2022/10/25 10:12:40;;;;;;;12.15;4.43;;;15.50;99.90;;;;;;5116624;28;20050;-83
2022/10/25 10:15:25;;;;;;;11.95;4.63;;;15.40;99.90;;;;;;5116363;28;20112;-80
2022/10/25 10:18:22;;;;;;;11.07;4.15;;;15.40;99.90;;;;;;5114036;28;20047;-81
2022/10/25 10:21:11;;;;;;;8.30;4.10;;;15.40;99.90;;;;;;5116202;28;20043;-82
2022/10/25 10:23:48;;;;;;;9.40;3.95;;;15.40;99.90;;;;;;5116153;28;20486;-78
2022/10/25 10:26:22;;;;;;;10.20;4.43;;;15.40;99.90;;;;;;5120705;28;20077;-79
2022/10/25 10:29:02;;;;;;;10.90;4.22;;;15.60;99.90;;;;;;5118276;28;20047;-81
2022/10/25 10:31:37;;;;;;;12.20;4.20;;;15.70;99.90;;;;;;5115136;28;20052;-82
2022/10/25 10:34:03;;;;;;;8.27;3.50;;;15.80;99.90;;;;;;5115931;28;20047;-81
2022/10/25 10:36:30;;;;;;;9.77;4.07;;;15.90;99.90;;;;;;5115761;28;20490;-81
2022/10/25 10:39:22;;;;;;;10.65;3.63;;;15.90;99.90;;;;;;5115814;28;20040;-82
2022/10/25 10:42:13;;;;;;;8.70;4.00;;;15.80;99.90;;;;;;5115290;28;20057;-82
2022/10/25 10:44:39;;;;;;;5.72;3.65;;;15.70;99.90;;;;;;5115139;28;20063;-81
2022/10/25 10:47:19;;;;;;;11.90;3.37;;;15.60;99.90;;;;;;5115367;28;20483;-82
2022/10/25 10:49:46;;;;;;;11.40;3.88;;;15.70;99.90;;;;;;5115861;28;20365;-82
2022/10/25 10:52:30;;;;;;;8.73;3.13;;;15.70;99.90;;;;;;5114203;28;20127;-82
2022/10/25 10:54:56;;;;;;;11.75;3.92;;;15.70;99.90;;;;;;5115741;28;20391;-80
2022/10/25 10:57:33;;;;;;;10.02;3.47;;;15.70;99.90;;;;;;5097251;28;20040;-85
2022/10/25 11:00:01;;;;;;;13.20;3.20;;;15.70;99.90;;;;;;5115507;28;20093;-83
2022/10/25 11:02:40;;;;;;;11.27;3.35;;;15.70;99.90;;;;;;5115208;28;20047;-81
2022/10/25 11:05:25;;;;;;;12.48;2.83;;;15.80;99.90;;;;;;5097667;28;20100;-81
2022/10/25 11:07:58;;;;;;;6.80;2.80;;;15.80;99.90;;;;;;5115110;28;20039;-82
2022/10/25 11:10:25;;;;;;;7.18;2.85;;;15.80;99.90;;;;;;5114090;28;20051;-82
2022/10/25 11:13:18;;;;;;;9.43;3.10;;;16.10;99.90;;;;;;5113751;28;20043;-82
2022/10/25 11:15:46;;;;;;;12.02;3.17;;;15.90;99.90;;;;;;5114866;28;20410;-82
2022/10/25 11:18:13;;;;;;;4.90;2.72;;;15.80;99.90;;;;;;5114666;28;20031;-81
2022/10/25 11:20:56;;;;;;;7.65;2.80;;;15.80;99.90;;;;;;5113704;28;20408;-82
2022/10/25 11:23:24;;;;;;;10.63;3.22;;;15.80;99.90;;;;;;5115011;28;20097;-81
2022/10/25 11:26:27;;;;;;;9.07;3.20;;;15.80;99.90;;;;;;5114681;28;20402;-81
2022/10/25 11:29:14;;;;;;;6.57;2.70;;;16.00;99.90;;;;;;5114431;28;20060;-80
2022/10/25 11:32:18;;;;;;;5.60;2.67;;;16.00;99.90;;;;;;5114916;28;20039;-81
2022/10/25 11:34:56;;;;;;;7.47;3.10;;;16.00;99.90;;;;;;5119543;27;20043;-78
2022/10/25 11:37:38;;;;;;;8.75;2.83;;;16.00;99.90;;;;;;5113511;28;20047;-81
2022/10/25 11:40:21;;;;;;;6.80;3.10;;;16.00;99.90;;;;;;5113349;28;20039;-81
2022/10/25 11:43:08;;;;;;;9.13;2.97;;;16.20;99.90;;;;;;5114731;28;20411;-81
2022/10/25 11:45:43;;;;;;;11.52;3.05;;;16.40;99.90;;;;;;5115083;28;20467;-81
2022/10/25 11:48:30;;;;;;;6.85;3.10;;;16.50;99.90;;;;;;5114798;28;20044;-80
2022/10/25 11:51:23;;;;;;;5.45;3.08;;;16.50;99.90;;;;;;5114845;28;20044;-81
2022/10/25 11:54:06;;;;;;;8.00;2.40;;;16.50;99.90;;;;;;5114406;28;20049;-81
2022/10/25 11:57:00;;;;;;;6.32;2.88;;;16.50;99.90;;;;;;5114772;28;20039;-81
2022/10/25 11:59:49;;;;;;;6.68;2.50;;;16.50;99.90;;;;;;5114471;28;20071;-81
2022/10/25 12:03:03;;;;;;;5.53;2.40;;;16.40;99.90;;;;;;5114321;28;20399;-81
2022/10/25 12:05:47;;;;;;;5.35;2.85;;;16.50;99.90;;;;;;5100523;28;20048;-81
2022/10/25 12:08:29;;;;;;;8.02;2.58;;;16.60;99.90;;;;;;5114181;28;20036;-82
2022/10/25 12:11:07;;;;;;;7.50;2.28;;;16.70;99.90;;;;;;5114332;28;20048;-81
2022/10/25 12:13:38;;;;;;;8.18;2.70;;;16.70;99.90;;;;;;5114267;28;20050;-81
2022/10/25 12:16:10;;;;;;;10.27;2.60;;;16.90;99.90;;;;;;5114276;28;20052;-81
2022/10/25 12:18:39;;;;;;;6.15;2.25;;;16.90;99.90;;;;;;5114220;28;20116;-82
2022/10/25 12:21:06;;;;;;;5.15;2.20;;;16.80;99.90;;;;;;5114080;28;20056;-82
2022/10/25 12:23:42;;;;;;;8.32;2.80;;;16.70;99.90;;;;;;5114064;28;20048;-82
2022/10/25 12:26:32;;;;;;;6.05;2.28;;;16.50;99.90;;;;;;5114330;28;20052;-81
2022/10/25 12:29:02;;;;;;;6.57;2.50;;;16.40;99.90;;;;;;5113989;28;20055;-81
2022/10/25 12:31:41;;;;;;;10.10;2.60;;;16.60;99.90;;;;;;5113919;28;20055;-81
2022/10/25 12:34:19;;;;;;;5.57;2.22;;;16.30;99.90;;;;;;5114421;28;20466;-81
2022/10/25 12:37:06;;;;;;;7.00;2.60;;;16.20;99.90;;;;;;5113888;28;20055;-82
2022/10/25 12:39:40;;;;;;;5.97;2.60;;;16.20;99.90;;;;;;5114473;28;20040;-82
2022/10/25 12:42:31;;;;;;;11.65;2.63;;;16.20;99.90;;;;;;5117896;27;20549;-81
2022/10/25 12:45:30;;;;;;;8.30;2.92;;;16.30;99.90;;;;;;5118116;28;20092;-82
2022/10/25 12:48:14;;;;;;;8.13;2.65;;;16.40;99.90;;;;;;5117903;28;20035;-81
2022/10/25 12:50:45;;;;;;;7.80;3.00;;;16.50;99.90;;;;;;5117933;28;20104;-82
2022/10/25 12:53:43;;;;;;;5.65;2.45;;;16.40;99.90;;;;;;5117968;28;20501;-82
2022/10/25 12:56:37;;;;;;;8.23;2.63;;;16.40;99.90;;;;;;5116993;28;20516;-78
2022/10/25 12:59:17;;;;;;;6.35;2.72;;;16.40;99.90;;;;;;5118021;28;20055;-82